createdAt,value
2019-02-05T00:01:37.523Z,7.03
2019-02-05T00:04:07.441Z,5.95
2019-02-05T00:06:37.475Z,10.50
2019-02-05T00:09:11.317Z,8.73
2019-02-05T00:11:41.255Z,7.25
2019-02-05T00:14:11.188Z,5.53
2019-02-05T00:16:41.497Z,6.28
2019-02-05T00:19:13.406Z,7.72
2019-02-05T00:21:43.575Z,6.33
2019-02-05T00:24:14.030Z,10.03
2019-02-05T00:26:44.119Z,5.60
2019-02-05T00:29:14.120Z,7.67
2019-02-05T00:31:44.823Z,6.97
2019-02-05T00:34:15.081Z,6.67
2019-02-05T00:36:45.038Z,8.35
2019-02-05T00:39:15.453Z,9.35
2019-02-05T00:41:45.419Z,6.45
2019-02-05T00:44:15.597Z,7.35
2019-02-05T00:46:45.557Z,6.30
2019-02-05T00:49:15.768Z,5.70
2019-02-05T00:51:45.796Z,8.48
2019-02-05T00:54:15.769Z,6.22
2019-02-05T00:56:45.693Z,7.22
2019-02-05T00:59:15.917Z,4.30
2019-02-05T01:01:46.068Z,5.65
2019-02-05T01:04:17.798Z,4.65
2019-02-05T01:06:48.472Z,6.62
2019-02-05T01:09:18.465Z,5.25
2019-02-05T01:11:48.677Z,9.13
2019-02-05T01:14:18.632Z,5.47
2019-02-05T01:16:48.516Z,4.67
2019-02-05T01:19:18.624Z,5.30
2019-02-05T01:21:48.916Z,9.70
2019-02-05T01:24:19.025Z,7.22
2019-02-05T01:26:48.962Z,5.58
2019-02-05T01:29:19.032Z,6.12
2019-02-05T01:31:48.950Z,6.78
2019-02-05T01:34:18.834Z,6.80
2019-02-05T01:36:48.766Z,5.45
2019-02-05T01:39:19.100Z,5.65
2019-02-05T01:41:49.068Z,5.37
2019-02-05T01:44:19.036Z,3.72
2019-02-05T01:46:49.110Z,7.80
2019-02-05T01:49:19.133Z,8.73
2019-02-05T01:51:49.176Z,6.37
2019-02-05T01:54:20.030Z,6.45
2019-02-05T01:56:50.500Z,5.22
2019-02-05T01:59:20.510Z,5.90
2019-02-05T02:01:50.454Z,7.60
2019-02-05T02:04:20.369Z,10.53
2019-02-05T02:06:50.582Z,10.75
2019-02-05T02:09:27.932Z,7.17
2019-02-05T02:12:06.986Z,7.53
2019-02-05T02:14:36.959Z,9.28
2019-02-05T02:17:07.130Z,9.10
2019-02-05T02:19:37.168Z,8.55
2019-02-05T02:22:08.373Z,7.00
2019-02-05T02:24:40.604Z,6.90
2019-02-05T02:27:10.674Z,5.70
2019-02-05T02:29:40.677Z,7.33
2019-02-05T02:32:10.985Z,8.30
2019-02-05T02:34:41.475Z,10.30
2019-02-05T02:37:11.413Z,7.10
2019-02-05T02:39:41.403Z,8.25
2019-02-05T02:42:11.425Z,8.88
2019-02-05T02:44:41.404Z,8.35
2019-02-05T02:47:11.420Z,11.10
2019-02-05T02:49:41.337Z,7.80
2019-02-05T02:52:11.225Z,8.45
2019-02-05T02:54:41.833Z,9.48
2019-02-05T02:57:11.747Z,8.48
2019-02-05T02:59:43.039Z,8.88
2019-02-05T03:02:12.929Z,8.30
2019-02-05T03:04:43.770Z,9.83
2019-02-05T03:07:15.378Z,10.82
2019-02-05T03:09:45.359Z,10.68
2019-02-05T03:12:15.410Z,11.78
2019-02-05T03:14:45.551Z,8.85
2019-02-05T03:17:15.550Z,9.03
2019-02-05T03:19:45.381Z,8.75
2019-02-05T03:22:15.353Z,10.75
2019-02-05T03:24:45.331Z,9.83
2019-02-05T03:27:18.217Z,8.50
2019-02-05T03:29:48.229Z,10.30
2019-02-05T03:32:18.282Z,8.25
2019-02-05T03:34:48.215Z,8.05
2019-02-05T03:37:18.215Z,10.72
2019-02-05T03:39:48.174Z,7.35
2019-02-05T03:42:18.037Z,9.48
2019-02-05T03:44:48.791Z,8.33
2019-02-05T03:47:19.531Z,7.75
2019-02-05T03:49:49.419Z,6.72
2019-02-05T03:52:41.447Z,6.97
2019-02-05T03:55:48.107Z,7.95
2019-02-05T03:58:52.135Z,7.83
2019-02-05T04:01:45.065Z,9.58
2019-02-05T04:05:05.621Z,10.00
2019-02-05T04:08:02.671Z,9.85
2019-02-05T04:11:22.745Z,7.60
2019-02-05T04:14:25.994Z,9.38
2019-02-05T04:17:57.545Z,10.65
2019-02-05T04:20:49.057Z,7.83
2019-02-05T04:23:55.815Z,9.13
2019-02-05T04:27:03.896Z,9.80
2019-02-05T04:30:13.669Z,11.12
2019-02-05T04:33:13.746Z,8.93
2019-02-05T04:36:23.441Z,9.48
2019-02-05T04:39:29.937Z,10.43
2019-02-05T04:42:25.122Z,10.38
2019-02-05T04:45:34.502Z,10.58
2019-02-05T04:48:43.572Z,10.65
2019-02-05T04:52:09.300Z,9.98
2019-02-05T04:55:15.193Z,10.23
2019-02-05T04:58:19.534Z,9.43
2019-02-05T05:01:24.753Z,12.73
2019-02-05T05:04:15.344Z,12.33
2019-02-05T05:07:03.119Z,13.90
2019-02-05T05:09:59.369Z,13.78
2019-02-05T05:12:40.717Z,15.43
2019-02-05T05:15:16.733Z,15.20
2019-02-05T05:17:48.268Z,15.03
2019-02-05T05:20:18.112Z,12.90
2019-02-05T05:22:48.360Z,13.43
2019-02-05T05:25:18.908Z,15.05
2019-02-05T05:27:53.281Z,13.43
2019-02-05T05:30:26.229Z,17.30
2019-02-05T05:32:58.934Z,15.65
2019-02-05T05:35:40.666Z,19.20
2019-02-05T05:38:03.513Z,16.17
2019-02-05T05:40:33.447Z,17.07
2019-02-05T05:43:11.628Z,16.17
2019-02-05T05:45:49.433Z,16.15
2019-02-05T05:48:20.086Z,21.00
2019-02-05T05:50:50.077Z,16.73
2019-02-05T05:53:20.536Z,16.35
2019-02-05T05:55:50.772Z,17.27
2019-02-05T05:58:23.164Z,20.05
2019-02-05T06:00:52.561Z,15.70
2019-02-05T06:03:22.574Z,18.23
2019-02-05T06:05:52.776Z,19.00
2019-02-05T06:08:22.899Z,20.90
2019-02-05T06:10:52.764Z,19.95
2019-02-05T06:13:22.746Z,18.90
2019-02-05T06:15:52.762Z,22.70
2019-02-05T06:18:23.376Z,22.48
2019-02-05T06:20:53.538Z,17.30
2019-02-05T06:23:23.498Z,22.05
2019-02-05T06:25:53.613Z,20.82
2019-02-05T06:28:34.405Z,23.20
2019-02-05T06:30:56.491Z,24.60
2019-02-05T06:33:29.016Z,23.22
2019-02-05T06:35:59.166Z,24.32
2019-02-05T06:38:29.230Z,23.67
2019-02-05T06:40:59.326Z,23.83
2019-02-05T06:43:31.464Z,24.45
2019-02-05T06:46:01.693Z,24.15
2019-02-05T06:48:31.652Z,25.55
2019-02-05T06:51:01.635Z,25.10
2019-02-05T06:53:31.716Z,27.58
2019-02-05T06:56:01.726Z,27.17
2019-02-05T06:58:31.646Z,27.77
2019-02-05T07:01:03.278Z,29.70
2019-02-05T07:03:33.212Z,28.02
2019-02-05T07:06:03.252Z,25.05
2019-02-05T07:08:33.450Z,30.92
2019-02-05T07:11:03.981Z,27.13
2019-02-05T07:13:35.730Z,25.10
2019-02-05T07:16:05.934Z,25.27
2019-02-05T07:18:35.968Z,32.15
2019-02-05T07:21:06.130Z,29.98
2019-02-05T07:23:36.223Z,26.42
2019-02-05T07:26:06.257Z,27.20
2019-02-05T07:28:36.195Z,27.60
2019-02-05T07:31:06.316Z,26.00
2019-02-05T07:33:36.420Z,26.70
2019-02-05T07:36:06.456Z,28.10
2019-02-05T07:38:36.399Z,28.83
2019-02-05T07:41:06.378Z,27.35
2019-02-05T07:43:36.328Z,31.77
2019-02-05T07:46:06.275Z,26.80
2019-02-05T07:48:36.247Z,26.20
2019-02-05T07:51:06.253Z,27.85
2019-02-05T07:53:36.268Z,28.20
2019-02-05T07:56:06.356Z,26.57
2019-02-05T07:58:36.492Z,26.52
2019-02-05T08:01:06.491Z,28.40
2019-02-05T08:03:36.742Z,30.02
2019-02-05T08:06:06.705Z,31.17
2019-02-05T08:08:37.609Z,27.60
2019-02-05T08:11:07.580Z,29.40
2019-02-05T08:13:37.598Z,28.23
2019-02-05T08:16:07.615Z,27.13
2019-02-05T08:18:39.533Z,28.50
2019-02-05T08:21:09.640Z,30.80
2019-02-05T08:23:39.634Z,33.20
2019-02-05T08:26:10.610Z,28.57
2019-02-05T08:28:43.725Z,28.35
2019-02-05T08:31:13.756Z,31.70
2019-02-05T08:33:43.712Z,29.98
2019-02-05T08:36:13.740Z,30.12
2019-02-05T08:38:43.700Z,30.82
2019-02-05T08:41:13.638Z,28.75
2019-02-05T08:43:43.629Z,31.25
2019-02-05T08:46:13.649Z,34.75
2019-02-05T08:48:43.516Z,26.93
2019-02-05T08:51:13.761Z,29.80
2019-02-05T08:53:43.712Z,31.57
2019-02-05T08:56:13.607Z,35.25
2019-02-05T08:58:43.397Z,28.77
2019-02-05T09:01:14.604Z,30.45
2019-02-05T09:03:44.909Z,34.38
2019-02-05T09:06:15.304Z,34.27
2019-02-05T09:08:45.264Z,33.38
2019-02-05T09:11:15.772Z,29.77
2019-02-05T09:13:45.936Z,31.73
2019-02-05T09:16:17.633Z,29.48
2019-02-05T09:18:49.073Z,28.10
2019-02-05T09:21:19.240Z,30.97
2019-02-05T09:23:49.492Z,29.77
2019-02-05T09:26:19.584Z,30.35
2019-02-05T09:28:52.535Z,28.75
2019-02-05T09:31:24.956Z,30.60
2019-02-05T09:33:56.694Z,27.77
2019-02-05T09:36:27.115Z,27.15
2019-02-05T09:38:57.201Z,27.80
2019-02-05T09:41:28.459Z,28.25
2019-02-05T09:44:00.683Z,24.65
2019-02-05T09:46:31.634Z,26.95
2019-02-05T09:49:01.612Z,24.80
2019-02-05T09:51:31.525Z,29.65
2019-02-05T09:54:01.721Z,25.77
2019-02-05T09:56:34.659Z,25.57
2019-02-05T09:59:04.689Z,26.27
2019-02-05T10:01:35.105Z,22.98
2019-02-05T10:04:05.478Z,30.20
2019-02-05T10:06:38.043Z,23.15
2019-02-05T10:09:09.034Z,22.15
2019-02-05T10:11:39.100Z,24.12
2019-02-05T10:14:09.091Z,27.32
2019-02-05T10:16:41.129Z,23.15
2019-02-05T10:19:11.644Z,24.35
2019-02-05T10:21:42.431Z,21.15
2019-02-05T10:24:15.665Z,22.27
2019-02-05T10:26:50.457Z,20.45
2019-02-05T10:29:20.477Z,20.97
2019-02-05T10:31:50.789Z,21.05
2019-02-05T10:34:20.811Z,23.18
2019-02-05T10:36:50.684Z,23.55
2019-02-05T10:39:20.696Z,19.85
2019-02-05T10:41:50.785Z,19.92
2019-02-05T10:44:20.918Z,17.50
2019-02-05T10:46:50.954Z,21.23
2019-02-05T10:49:20.928Z,19.55
2019-02-05T10:51:50.930Z,22.05
2019-02-05T10:54:20.841Z,18.77
2019-02-05T10:56:50.928Z,20.10
2019-02-05T10:59:21.941Z,28.07
2019-02-05T11:01:55.411Z,20.10
2019-02-05T11:04:25.627Z,21.15
2019-02-05T11:06:57.174Z,21.00
2019-02-05T11:09:28.071Z,21.37
2019-02-05T11:11:58.142Z,23.85
2019-02-05T11:14:35.464Z,23.75
2019-02-05T11:17:05.974Z,23.47
2019-02-05T11:19:36.085Z,23.98
2019-02-05T11:22:06.186Z,23.73
2019-02-05T11:24:37.356Z,21.17
2019-02-05T11:27:08.461Z,24.52
2019-02-05T11:29:38.889Z,24.72
2019-02-05T11:32:09.185Z,26.40
2019-02-05T11:34:39.382Z,27.50
2019-02-05T11:37:09.464Z,22.55
2019-02-05T11:39:39.753Z,26.00
2019-02-05T11:42:10.117Z,26.55
2019-02-05T11:44:47.507Z,26.62
2019-02-05T11:47:22.506Z,22.77
2019-02-05T11:49:53.164Z,29.98
2019-02-05T11:52:23.262Z,27.07
2019-02-05T11:54:54.675Z,27.62
2019-02-05T11:57:25.433Z,26.73
2019-02-05T11:59:55.663Z,30.35
2019-02-05T12:02:28.718Z,27.95
2019-02-05T12:04:59.229Z,28.83
2019-02-05T12:07:29.708Z,26.30
2019-02-05T12:10:03.321Z,28.57
2019-02-05T12:12:42.360Z,30.82
2019-02-05T12:15:13.034Z,33.92
2019-02-05T12:17:43.454Z,31.77
2019-02-05T12:20:15.138Z,31.62
2019-02-05T12:22:45.505Z,31.73
2019-02-05T12:25:16.444Z,30.32
2019-02-05T12:27:47.992Z,32.67
2019-02-05T12:30:20.945Z,31.17
2019-02-05T12:32:50.993Z,32.63
2019-02-05T12:35:21.131Z,33.23
2019-02-05T12:37:51.142Z,36.25
2019-02-05T12:40:21.650Z,36.68
2019-02-05T12:42:51.920Z,33.20
2019-02-05T12:45:24.249Z,41.90
2019-02-05T12:47:54.467Z,36.45
2019-02-05T12:50:26.891Z,37.00
2019-02-05T12:52:57.065Z,34.40
2019-02-05T12:55:27.383Z,35.50
2019-02-05T12:57:59.431Z,35.25
2019-02-05T13:00:34.529Z,37.98
2019-02-05T13:03:05.101Z,36.75
2019-02-05T13:05:35.351Z,35.48
2019-02-05T13:08:07.975Z,36.25
2019-02-05T13:10:40.302Z,35.60
2019-02-05T13:13:10.376Z,35.25
2019-02-05T13:15:40.749Z,38.33
2019-02-05T13:18:10.963Z,35.88
2019-02-05T13:20:41.734Z,39.42
2019-02-05T13:23:15.527Z,38.33
2019-02-05T13:25:46.195Z,35.43
2019-02-05T13:28:22.266Z,30.95
2019-02-05T13:30:52.681Z,33.23
2019-02-05T13:33:23.224Z,31.75
2019-02-05T13:35:53.531Z,33.83
2019-02-05T13:38:23.662Z,34.70
2019-02-05T13:40:53.963Z,32.05
2019-02-05T13:43:25.063Z,33.85
2019-02-05T13:45:55.291Z,32.88
2019-02-05T13:48:25.389Z,25.95
2019-02-05T13:50:56.377Z,35.78
2019-02-05T13:53:26.821Z,32.03
2019-02-05T13:55:57.041Z,33.60
2019-02-05T13:58:29.928Z,32.48
2019-02-05T14:01:00.020Z,36.03
2019-02-05T14:03:30.087Z,35.03
2019-02-05T14:06:00.130Z,32.20
2019-02-05T14:08:38.424Z,40.60
2019-02-05T14:11:04.327Z,33.58
2019-02-05T14:13:34.670Z,31.68
2019-02-05T14:16:04.989Z,34.83
2019-02-05T14:18:35.052Z,35.45
2019-02-05T14:21:07.253Z,34.80
2019-02-05T14:23:37.338Z,34.50
2019-02-05T14:26:10.452Z,39.63
2019-02-05T14:28:40.657Z,37.15
2019-02-05T14:31:10.903Z,48.08
2019-02-05T14:33:40.967Z,47.40
2019-02-05T14:36:10.934Z,40.23
2019-02-05T14:38:41.021Z,38.55
2019-02-05T14:41:11.287Z,37.78
2019-02-05T14:43:41.259Z,44.90
2019-02-05T14:46:13.264Z,45.03
2019-02-05T14:48:43.179Z,50.20
2019-02-05T14:51:13.576Z,45.50
2019-02-05T14:53:44.339Z,43.87
2019-02-05T14:56:14.482Z,47.70
2019-02-05T14:58:48.568Z,39.42
2019-02-05T15:01:22.300Z,43.55
2019-02-05T15:03:58.272Z,39.83
2019-02-05T15:06:32.049Z,44.98
2019-02-05T15:09:06.436Z,46.10
2019-02-05T15:11:46.554Z,41.75
2019-02-05T15:14:16.830Z,45.78
2019-02-05T15:16:47.186Z,45.58
2019-02-05T15:19:17.518Z,44.20
2019-02-05T15:21:48.026Z,48.25
2019-02-05T15:24:18.227Z,49.63
2019-02-05T15:26:48.487Z,46.83
2019-02-05T15:29:23.066Z,47.73
2019-02-05T15:31:55.614Z,48.28
2019-02-05T15:34:28.950Z,40.17
2019-02-05T15:37:10.763Z,47.62
2019-02-05T15:39:42.283Z,43.90
2019-02-05T15:42:19.588Z,46.20
2019-02-05T15:44:50.043Z,44.10
2019-02-05T15:47:20.270Z,50.35
2019-02-05T15:49:50.591Z,51.92
2019-02-05T15:52:20.736Z,49.45
2019-02-05T15:54:51.136Z,46.42
2019-02-05T15:57:21.656Z,51.28
2019-02-05T15:59:52.984Z,42.80
2019-02-05T16:02:23.102Z,45.50
2019-02-05T16:04:53.665Z,45.58
2019-02-05T16:07:23.668Z,38.20
2019-02-05T16:09:53.800Z,43.00
2019-02-05T16:12:24.016Z,43.83
2019-02-05T16:14:54.228Z,42.20
2019-02-05T16:17:24.638Z,46.08
2019-02-05T16:19:55.264Z,44.30
2019-02-05T16:22:26.324Z,44.27
2019-02-05T16:24:56.673Z,36.63
2019-02-05T16:27:26.886Z,41.75
2019-02-05T16:29:57.104Z,38.20
2019-02-05T16:32:28.733Z,42.58
2019-02-05T16:35:01.118Z,38.80
2019-02-05T16:37:31.476Z,41.95
2019-02-05T16:40:01.680Z,43.95
2019-02-05T16:42:32.215Z,53.78
2019-02-05T16:45:04.296Z,43.10
2019-02-05T16:47:34.483Z,42.03
2019-02-05T16:50:05.754Z,40.65
2019-02-05T16:52:38.809Z,45.48
2019-02-05T16:55:09.525Z,45.88
2019-02-05T16:57:44.773Z,45.75
2019-02-05T17:00:23.011Z,45.78
2019-02-05T17:02:53.720Z,44.80
2019-02-05T17:05:27.339Z,43.65
2019-02-05T17:07:58.107Z,42.65
2019-02-05T17:10:30.836Z,42.03
2019-02-05T17:13:01.117Z,41.13
2019-02-05T17:15:31.641Z,38.90
2019-02-05T17:18:02.434Z,38.50
2019-02-05T17:20:34.282Z,36.95
2019-02-05T17:23:05.249Z,41.25
2019-02-05T17:25:38.626Z,38.95
2019-02-05T17:28:12.098Z,38.13
2019-02-05T17:30:42.751Z,39.25
2019-02-05T17:33:13.349Z,38.05
2019-02-05T17:35:44.117Z,37.35
2019-02-05T17:38:22.207Z,39.65
2019-02-05T17:41:18.024Z,30.30
2019-02-05T17:43:51.893Z,35.35
2019-02-05T17:46:23.258Z,33.98
2019-02-05T17:48:59.148Z,33.05
2019-02-05T17:51:35.711Z,34.20
2019-02-05T17:54:07.296Z,32.17
2019-02-05T17:56:38.335Z,30.88
2019-02-05T17:59:11.764Z,32.00
2019-02-05T18:01:42.241Z,26.15
2019-02-05T18:04:12.914Z,31.95
2019-02-05T18:06:46.577Z,28.98
2019-02-05T18:09:30.427Z,28.07
2019-02-05T18:12:08.882Z,31.37
2019-02-05T18:14:39.908Z,31.82
2019-02-05T18:17:16.659Z,30.62
2019-02-05T18:19:47.068Z,26.70
2019-02-05T18:22:17.787Z,27.55
2019-02-05T18:24:48.131Z,28.17
2019-02-05T18:27:18.811Z,28.00
2019-02-05T18:29:49.433Z,26.90
2019-02-05T18:32:19.979Z,26.15
2019-02-05T18:34:50.490Z,27.77
2019-02-05T18:37:21.019Z,29.35
2019-02-05T18:39:51.523Z,26.68
2019-02-05T18:42:24.581Z,27.50
2019-02-05T18:44:55.386Z,27.73
2019-02-05T18:47:26.186Z,27.98
2019-02-05T18:49:57.059Z,25.30
2019-02-05T18:52:29.508Z,26.05
2019-02-05T18:55:00.666Z,26.07
2019-02-05T18:57:33.810Z,29.18
2019-02-05T19:00:18.578Z,27.60
2019-02-05T19:02:52.505Z,29.42
2019-02-05T19:05:23.120Z,29.55
2019-02-05T19:07:53.998Z,26.60
2019-02-05T19:10:25.543Z,26.05
2019-02-05T19:12:55.990Z,29.05
2019-02-05T19:15:33.896Z,28.30
2019-02-05T19:18:05.123Z,26.62
2019-02-05T19:20:35.824Z,27.87
2019-02-05T19:23:07.595Z,25.30
2019-02-05T19:25:59.749Z,31.68
2019-02-05T19:28:35.772Z,27.50
2019-02-05T19:31:29.382Z,25.77
2019-02-05T19:34:01.201Z,27.02
2019-02-05T19:36:32.134Z,28.32
2019-02-05T19:39:02.665Z,30.43
2019-02-05T19:41:34.961Z,31.77
2019-02-05T19:44:05.886Z,30.52
2019-02-05T19:47:03.826Z,29.77
2019-02-05T19:49:47.734Z,29.25
2019-02-05T19:52:21.866Z,33.18
2019-02-05T19:54:55.248Z,28.85
2019-02-05T19:57:25.530Z,32.78
2019-02-05T20:00:07.071Z,33.20
2019-02-05T20:02:39.272Z,35.80
2019-02-05T20:05:10.894Z,32.78
2019-02-05T20:07:41.422Z,38.10
2019-02-05T20:10:13.110Z,34.45
2019-02-05T20:12:43.507Z,32.67
2019-02-05T20:15:14.343Z,34.35
2019-02-05T20:17:47.804Z,36.48
2019-02-05T20:20:18.754Z,40.92
2019-02-05T20:22:49.784Z,39.73
2019-02-05T20:25:27.511Z,39.88
2019-02-05T20:28:01.136Z,44.45
2019-02-05T20:30:32.105Z,42.00
2019-02-05T20:33:05.231Z,38.38
2019-02-05T20:35:37.898Z,41.25
2019-02-05T20:38:10.307Z,40.12
2019-02-05T20:40:41.198Z,41.18
2019-02-05T20:43:15.495Z,39.53
2019-02-05T20:45:47.663Z,42.03
2019-02-05T20:48:18.740Z,45.08
2019-02-05T20:50:49.350Z,40.98
2019-02-05T20:53:19.903Z,38.40
2019-02-05T20:55:51.248Z,41.55
2019-02-05T20:58:22.284Z,42.70
2019-02-05T21:00:52.994Z,39.90
2019-02-05T21:03:24.009Z,41.70
2019-02-05T21:05:54.590Z,41.05
2019-02-05T21:08:25.314Z,39.88
2019-02-05T21:11:04.183Z,44.75
2019-02-05T21:13:36.509Z,44.70
2019-02-05T21:16:07.566Z,42.58
2019-02-05T21:18:37.865Z,44.53
2019-02-05T21:21:08.163Z,44.83
2019-02-05T21:23:38.659Z,43.92
2019-02-05T21:26:09.221Z,47.35
2019-02-05T21:28:40.209Z,46.50
2019-02-05T21:31:10.757Z,45.40
2019-02-05T21:33:41.180Z,42.45
2019-02-05T21:36:11.749Z,48.30
2019-02-05T21:38:45.433Z,46.65
2019-02-05T21:41:15.589Z,46.08
2019-02-05T21:43:49.264Z,50.43
2019-02-05T21:46:19.908Z,50.15
2019-02-05T21:48:50.422Z,47.90
2019-02-05T21:51:20.942Z,47.70
2019-02-05T21:53:51.579Z,48.02
2019-02-05T21:56:21.994Z,45.95
2019-02-05T21:58:52.390Z,50.67
2019-02-05T22:01:23.155Z,46.60
2019-02-05T22:03:53.873Z,42.13
2019-02-05T22:06:24.207Z,42.55
2019-02-05T22:08:55.031Z,48.10
2019-02-05T22:11:26.961Z,44.95
2019-02-05T22:13:57.324Z,46.37
2019-02-05T22:16:27.866Z,49.83
2019-02-05T22:18:58.364Z,47.67
2019-02-05T22:21:28.895Z,46.55
2019-02-05T22:23:59.742Z,47.98
2019-02-05T22:26:30.887Z,48.42
2019-02-05T22:29:01.853Z,44.27
2019-02-05T22:31:32.523Z,50.25
2019-02-05T22:34:03.153Z,50.35
2019-02-05T22:36:33.639Z,47.58
2019-02-05T22:39:05.960Z,55.05
2019-02-05T22:41:38.142Z,52.53
2019-02-05T22:44:08.679Z,51.68
2019-02-05T22:46:39.354Z,50.35
2019-02-05T22:49:09.966Z,49.50
2019-02-05T22:51:40.659Z,56.33
2019-02-05T22:54:11.160Z,47.25
2019-02-05T22:56:41.751Z,59.58
2019-02-05T22:59:12.817Z,52.48
2019-02-05T23:01:55.954Z,50.55
2019-02-05T23:05:06.249Z,54.08
2019-02-05T23:07:36.950Z,56.53
2019-02-05T23:11:06.534Z,55.88
2019-02-05T23:13:37.328Z,49.05
2019-02-05T23:16:07.985Z,49.40
2019-02-05T23:18:38.710Z,54.08
2019-02-05T23:21:09.382Z,53.10
2019-02-05T23:23:40.101Z,51.55
2019-02-05T23:26:10.880Z,50.95
2019-02-05T23:28:41.641Z,53.30
2019-02-05T23:31:12.088Z,50.15
2019-02-05T23:33:44.670Z,51.42
2019-02-05T23:36:14.807Z,57.15
2019-02-05T23:38:45.351Z,51.23
2019-02-05T23:41:16.409Z,49.42
2019-02-05T23:43:46.757Z,55.43
2019-02-05T23:46:17.490Z,51.75
2019-02-05T23:48:48.085Z,51.80
2019-02-05T23:51:18.506Z,57.08
2019-02-05T23:53:48.887Z,56.15
2019-02-05T23:56:25.644Z,60.03
2019-02-05T23:58:51.709Z,64.22
